Time;durP1;ratioP1;P1;durP2;ratioP2;P2;SDS_P1;SDS_P2;PMS_P1;PMS_P2;Temp;Humidity;BMP_temperature;BMP_pressure;BME280_temperature;BME280_humidity;BME280_pressure;Samples;Min_cycle;Max_cycle;Signal;HPM_P1;HPM_P2
2023/02/03 00:02:12;;;;;;;9.65;1.05;;;8.80;99.90;;;;;;5032777;28;20034;-89
2023/02/03 00:04:37;;;;;;;14.90;1.83;;;8.80;99.90;;;;;;5033077;28;20115;-89
2023/02/03 00:07:03;;;;;;;9.93;1.50;;;8.80;99.90;;;;;;5032616;28;20477;-89
2023/02/03 00:09:29;;;;;;;11.27;1.17;;;8.80;99.90;;;;;;5032560;28;20022;-89
2023/02/03 00:11:54;;;;;;;17.77;1.83;;;8.80;99.90;;;;;;5031104;28;20075;-89
2023/02/03 00:14:20;;;;;;;10.68;1.10;;;8.80;99.90;;;;;;5034560;28;20030;-89
2023/02/03 00:16:45;;;;;;;12.90;1.00;;;8.80;99.90;;;;;;5030400;28;20074;-89
2023/02/03 00:19:11;;;;;;;11.02;2.00;;;8.80;99.90;;;;;;5023282;28;20060;-89
2023/02/03 00:21:36;;;;;;;11.65;1.55;;;8.80;99.90;;;;;;5029216;28;20124;-89
2023/02/03 00:24:02;;;;;;;17.48;1.65;;;8.80;99.90;;;;;;5024421;28;20459;-89
2023/02/03 00:26:28;;;;;;;13.38;1.30;;;8.80;99.90;;;;;;5027456;28;20121;-90
2023/02/03 00:28:53;;;;;;;9.00;1.30;;;8.80;99.90;;;;;;5047028;28;20025;-89
2023/02/03 00:31:21;;;;;;;16.08;1.77;;;8.80;99.90;;;;;;5016973;28;20037;-89
2023/02/03 00:33:47;;;;;;;13.60;1.65;;;8.90;99.90;;;;;;5031252;28;20061;-90
2023/02/03 00:36:13;;;;;;;13.63;1.38;;;8.90;99.90;;;;;;5032327;28;20072;-89
2023/02/03 00:38:39;;;;;;;11.45;1.52;;;8.90;99.90;;;;;;5032759;28;20022;-88
2023/02/03 00:41:05;;;;;;;15.50;1.52;;;8.90;99.90;;;;;;5032243;28;20080;-88
2023/02/03 00:43:31;;;;;;;7.93;1.42;;;8.90;99.90;;;;;;5032295;28;20041;-89
2023/02/03 00:45:56;;;;;;;22.90;2.50;;;8.90;99.90;;;;;;5032733;28;20036;-89
2023/02/03 00:48:22;;;;;;;10.90;1.08;;;8.80;99.90;;;;;;5029301;28;20034;-89
2023/02/03 00:50:47;;;;;;;13.15;1.20;;;8.90;99.90;;;;;;5019611;28;20034;-89
2023/02/03 00:53:13;;;;;;;15.07;1.63;;;8.80;99.90;;;;;;5027879;28;20382;-89
2023/02/03 00:55:41;;;;;;;10.80;1.50;;;8.90;99.90;;;;;;5032287;28;20030;-89
2023/02/03 00:58:06;;;;;;;13.52;1.30;;;8.80;99.90;;;;;;5029238;28;20033;-89
2023/02/03 01:00:32;;;;;;;14.02;1.50;;;8.80;99.90;;;;;;5032060;28;20021;-89
2023/02/03 01:02:57;;;;;;;9.18;1.20;;;8.80;99.90;;;;;;5032184;28;20037;-88
2023/02/03 01:05:23;;;;;;;9.65;1.25;;;8.80;99.90;;;;;;5024987;28;20014;-89
2023/02/03 01:07:48;;;;;;;13.90;1.30;;;8.90;99.90;;;;;;5014499;28;20025;-89
2023/02/03 01:10:14;;;;;;;10.15;1.38;;;8.90;99.90;;;;;;5023597;28;20029;-88
2023/02/03 01:12:40;;;;;;;12.60;1.20;;;8.90;99.90;;;;;;5036085;28;20037;-88
2023/02/03 01:15:06;;;;;;;11.95;1.45;;;8.90;99.90;;;;;;5036448;28;20097;-88
2023/02/03 01:17:31;;;;;;;16.63;1.48;;;8.90;99.90;;;;;;5030819;28;20028;-88
2023/02/03 01:19:57;;;;;;;10.18;1.20;;;8.90;99.90;;;;;;5016133;28;20492;-89
2023/02/03 01:22:22;;;;;;;11.93;1.13;;;8.90;99.90;;;;;;5017094;28;20108;-89
2023/02/03 01:24:48;;;;;;;8.05;1.50;;;8.90;99.90;;;;;;5017377;28;20022;-89
2023/02/03 01:27:13;;;;;;;10.27;0.82;;;8.90;99.90;;;;;;5016325;28;20023;-89
2023/02/03 01:29:39;;;;;;;9.20;1.42;;;8.90;99.90;;;;;;5016133;28;20018;-89
2023/02/03 01:32:04;;;;;;;12.85;1.33;;;8.90;99.90;;;;;;5016135;28;20022;-88
2023/02/03 01:34:30;;;;;;;11.73;1.05;;;8.90;99.90;;;;;;5029585;28;20046;-89
2023/02/03 01:36:56;;;;;;;10.75;1.02;;;8.90;99.90;;;;;;5032319;28;20450;-88
2023/02/03 01:39:21;;;;;;;10.48;1.38;;;8.90;99.90;;;;;;5032450;28;20501;-89
2023/02/03 01:41:47;;;;;;;13.10;0.85;;;9.00;99.90;;;;;;5035741;28;20393;-89
2023/02/03 01:44:37;;;;;;;7.35;0.88;;;9.00;99.90;;;;;;5032300;28;20033;-89
2023/02/03 01:47:13;;;;;;;14.75;1.40;;;9.00;99.90;;;;;;5035468;28;20458;-89
2023/02/03 01:49:42;;;;;;;9.35;1.13;;;9.00;99.90;;;;;;5033577;28;20049;-89
2023/02/03 01:52:08;;;;;;;8.80;1.50;;;9.00;99.90;;;;;;5025310;28;20096;-89
2023/02/03 01:54:40;;;;;;;10.73;0.90;;;9.00;99.90;;;;;;5034427;28;20034;-89
2023/02/03 01:57:14;;;;;;;9.95;1.20;;;9.00;99.90;;;;;;5034613;28;20092;-89
2023/02/03 01:59:41;;;;;;;8.27;1.02;;;9.00;99.90;;;;;;5035068;28;20033;-88
2023/02/03 02:02:07;;;;;;;8.82;1.55;;;9.00;99.90;;;;;;5028717;28;20041;-89
2023/02/03 02:04:45;;;;;;;9.85;0.95;;;9.00;99.90;;;;;;5028089;28;20104;-89
2023/02/03 02:07:11;;;;;;;7.45;0.70;;;9.00;99.90;;;;;;5029265;28;20064;-89
2023/02/03 02:09:37;;;;;;;7.18;0.60;;;9.00;99.90;;;;;;5023014;28;20053;-88
2023/02/03 02:12:03;;;;;;;5.47;1.15;;;9.00;99.90;;;;;;5035511;28;20094;-89
2023/02/03 02:14:28;;;;;;;16.13;1.50;;;9.00;99.90;;;;;;5033040;28;20069;-89
2023/02/03 02:17:17;;;;;;;7.07;0.70;;;9.10;99.90;;;;;;5015003;28;20033;-89
2023/02/03 02:20:10;;;;;;;14.00;1.83;;;9.00;99.90;;;;;;5019015;28;20045;-89
2023/02/03 02:23:09;;;;;;;8.35;0.80;;;9.00;99.90;;;;;;5032648;28;20033;-90
2023/02/03 02:25:57;;;;;;;12.15;1.30;;;9.10;99.90;;;;;;5030942;28;20052;-89
2023/02/03 02:28:58;;;;;;;9.00;1.08;;;9.10;99.90;;;;;;5033945;28;20101;-89
2023/02/03 02:31:52;;;;;;;9.43;0.87;;;9.10;99.90;;;;;;5047932;28;20132;-89
2023/02/03 02:34:27;;;;;;;9.38;0.82;;;9.10;99.90;;;;;;5021226;28;20045;-89
2023/02/03 02:37:28;;;;;;;6.13;0.80;;;9.10;99.90;;;;;;5033929;28;20029;-89
2023/02/03 02:40:14;;;;;;;7.28;0.90;;;9.10;99.90;;;;;;4996690;28;20029;-89
2023/02/03 02:42:59;;;;;;;6.43;0.77;;;9.10;99.90;;;;;;5030803;28;20092;-88
2023/02/03 02:45:43;;;;;;;5.93;0.63;;;9.10;99.90;;;;;;5027669;28;20104;-89
2023/02/03 02:48:21;;;;;;;9.50;0.70;;;9.10;99.90;;;;;;5035196;28;20109;-89
2023/02/03 02:50:51;;;;;;;8.32;0.70;;;9.10;99.90;;;;;;5029621;28;20117;-89
2023/02/03 02:53:20;;;;;;;6.65;1.00;;;9.10;99.90;;;;;;5024350;28;20524;-89
2023/02/03 02:55:46;;;;;;;8.18;0.80;;;9.20;99.90;;;;;;5017469;28;20164;-89
2023/02/03 02:58:14;;;;;;;9.88;1.33;;;9.10;99.90;;;;;;5024549;28;20452;-89
2023/02/03 03:00:41;;;;;;;8.95;0.95;;;9.10;99.90;;;;;;5027459;28;20023;-89
2023/02/03 03:03:16;;;;;;;8.75;0.80;;;9.10;99.90;;;;;;5032883;28;20045;-89
2023/02/03 03:05:47;;;;;;;8.55;0.80;;;9.10;99.90;;;;;;5033623;28;20025;-89
2023/02/03 03:08:15;;;;;;;6.60;1.00;;;9.10;99.90;;;;;;5034119;28;20025;-89
2023/02/03 03:10:43;;;;;;;8.65;1.00;;;9.20;99.90;;;;;;5028163;28;20025;-89
2023/02/03 03:13:13;;;;;;;8.25;0.82;;;9.10;99.90;;;;;;5021778;28;20037;-89
2023/02/03 03:15:39;;;;;;;14.80;1.13;;;9.20;99.90;;;;;;5033336;28;20029;-89
2023/02/03 03:18:12;;;;;;;8.85;0.77;;;9.20;99.90;;;;;;5032280;28;20029;-88
2023/02/03 03:20:41;;;;;;;8.60;0.90;;;9.10;99.90;;;;;;5025626;28;20060;-88
2023/02/03 03:23:23;;;;;;;10.60;0.90;;;9.20;99.90;;;;;;5031732;28;20052;-89
2023/02/03 03:25:59;;;;;;;16.60;0.88;;;9.20;99.90;;;;;;5029290;28;20017;-89
2023/02/03 03:28:41;;;;;;;8.18;0.82;;;9.10;99.90;;;;;;5021558;28;20034;-89
2023/02/03 03:31:06;;;;;;;7.03;1.08;;;9.20;99.90;;;;;;5028265;28;20132;-89
2023/02/03 03:33:32;;;;;;;8.95;0.93;;;9.20;99.90;;;;;;5023387;28;20079;-89
2023/02/03 03:36:11;;;;;;;8.25;1.00;;;9.20;99.90;;;;;;5029714;28;20111;-89
2023/02/03 03:38:48;;;;;;;5.32;0.90;;;9.20;99.90;;;;;;5030259;28;20030;-89
2023/02/03 03:41:26;;;;;;;11.13;0.80;;;9.20;99.90;;;;;;5027337;28;20053;-88
2023/02/03 03:43:57;;;;;;;9.10;0.88;;;9.20;99.90;;;;;;5032411;28;20041;-89
2023/02/03 03:46:28;;;;;;;8.50;0.75;;;9.20;99.90;;;;;;5033179;28;20025;-88
2023/02/03 03:48:59;;;;;;;12.57;1.00;;;9.20;99.90;;;;;;5033262;28;20025;-89
2023/02/03 03:51:39;;;;;;;4.70;0.70;;;9.20;99.90;;;;;;5028941;28;20022;-89
2023/02/03 03:54:09;;;;;;;7.65;1.02;;;9.20;99.90;;;;;;5026986;28;20025;-89
2023/02/03 03:57:08;;;;;;;6.78;0.60;;;9.20;99.90;;;;;;5033811;28;20581;-89
2023/02/03 03:59:39;;;;;;;10.55;1.00;;;9.20;99.90;;;;;;5000421;28;20116;-89
2023/02/03 04:02:05;;;;;;;6.45;0.70;;;9.20;99.90;;;;;;5027590;28;20064;-89
2023/02/03 04:04:34;;;;;;;10.65;0.70;;;9.20;99.90;;;;;;5032537;28;20017;-89
2023/02/03 04:06:59;;;;;;;9.18;0.70;;;9.20;99.90;;;;;;5032306;28;20025;-89
2023/02/03 04:09:25;;;;;;;7.75;0.60;;;9.20;99.90;;;;;;5031141;28;20025;-89
2023/02/03 04:12:03;;;;;;;6.15;0.65;;;9.20;99.90;;;;;;5031405;28;20164;-89
2023/02/03 04:14:30;;;;;;;7.25;0.65;;;9.20;99.90;;;;;;5043249;28;20021;-89
2023/02/03 04:16:57;;;;;;;9.80;0.80;;;9.30;99.90;;;;;;5032156;28;20026;-89
2023/02/03 04:19:22;;;;;;;5.60;0.63;;;9.30;99.90;;;;;;5032364;28;20025;-89
2023/02/03 04:21:48;;;;;;;8.75;0.52;;;9.30;99.90;;;;;;5032013;28;20130;-89
2023/02/03 04:24:13;;;;;;;9.68;0.80;;;9.30;99.90;;;;;;5032203;28;20033;-89
2023/02/03 04:26:39;;;;;;;11.10;0.85;;;9.30;99.90;;;;;;5030395;28;20032;-89
2023/02/03 04:29:05;;;;;;;6.70;1.48;;;9.30;99.90;;;;;;5032060;28;20072;-89
2023/02/03 04:31:30;;;;;;;9.52;1.02;;;9.30;99.90;;;;;;5032405;28;20033;-88
2023/02/03 04:33:56;;;;;;;9.02;1.25;;;9.30;99.90;;;;;;5031714;28;20045;-89
2023/02/03 04:36:21;;;;;;;5.78;0.60;;;9.30;99.90;;;;;;5030823;28;20076;-89
2023/02/03 04:38:50;;;;;;;8.82;0.88;;;9.30;99.90;;;;;;5020198;28;20041;-89
2023/02/03 04:41:16;;;;;;;8.73;0.95;;;9.30;99.90;;;;;;5030324;28;20030;-88
2023/02/03 04:43:42;;;;;;;9.50;0.60;;;9.30;99.90;;;;;;5032303;28;20034;-89
2023/02/03 04:46:09;;;;;;;8.27;0.70;;;9.30;99.90;;;;;;5034640;28;20117;-88
2023/02/03 04:48:35;;;;;;;8.07;0.80;;;9.20;99.90;;;;;;5034585;28;20128;-89
2023/02/03 04:51:02;;;;;;;10.82;0.55;;;9.30;99.90;;;;;;5035219;28;20093;-90
2023/02/03 04:53:29;;;;;;;13.23;0.70;;;9.30;99.90;;;;;;5020077;28;20030;-88
2023/02/03 04:55:54;;;;;;;7.70;0.60;;;9.30;99.90;;;;;;5033191;28;20029;-88
2023/02/03 04:58:20;;;;;;;11.88;1.77;;;9.30;99.90;;;;;;5031997;28;20021;-88
2023/02/03 05:00:45;;;;;;;7.43;0.60;;;9.30;99.90;;;;;;5035431;28;20072;-88
2023/02/03 05:03:11;;;;;;;5.63;0.50;;;9.30;99.90;;;;;;5034432;28;20064;-88
2023/02/03 05:05:37;;;;;;;7.05;0.70;;;9.30;99.90;;;;;;5022296;28;20029;-88
2023/02/03 05:08:02;;;;;;;9.77;1.00;;;9.30;99.90;;;;;;5035205;28;20175;-88
2023/02/03 05:10:28;;;;;;;8.40;0.70;;;9.30;99.90;;;;;;5034514;28;20021;-88
2023/02/03 05:12:53;;;;;;;11.35;1.00;;;9.30;99.90;;;;;;5033861;28;20048;-88
2023/02/03 05:15:19;;;;;;;7.95;0.50;;;9.30;99.90;;;;;;5034764;28;20031;-88
2023/02/03 05:17:44;;;;;;;7.95;0.90;;;9.30;99.90;;;;;;5031717;28;20025;-88
2023/02/03 05:20:10;;;;;;;9.32;0.55;;;9.20;99.90;;;;;;5033706;28;20492;-88
2023/02/03 05:22:36;;;;;;;7.82;0.82;;;9.30;99.90;;;;;;5035818;28;20033;-88
2023/02/03 05:25:03;;;;;;;4.60;0.63;;;9.20;99.90;;;;;;5030858;28;20405;-88
2023/02/03 05:27:29;;;;;;;10.15;0.80;;;9.30;99.90;;;;;;5040181;28;20401;-88
2023/02/03 05:29:54;;;;;;;11.10;0.90;;;9.30;99.90;;;;;;5032541;28;20021;-88
2023/02/03 05:32:20;;;;;;;8.20;0.60;;;9.20;99.90;;;;;;5022353;28;20490;-89
2023/02/03 05:34:45;;;;;;;5.65;0.50;;;9.20;99.90;;;;;;5026598;28;20060;-89
2023/02/03 05:37:11;;;;;;;10.25;0.60;;;9.20;99.90;;;;;;5031370;28;20065;-89
2023/02/03 05:39:36;;;;;;;7.97;0.47;;;9.20;99.90;;;;;;5032908;28;20049;-88
2023/02/03 05:42:03;;;;;;;7.40;0.57;;;9.20;99.90;;;;;;5030176;28;20482;-89
2023/02/03 05:44:29;;;;;;;8.10;0.70;;;9.20;99.90;;;;;;5029244;28;20056;-89
2023/02/03 05:46:57;;;;;;;9.45;0.45;;;9.20;99.90;;;;;;5029261;28;20072;-90
2023/02/03 05:49:23;;;;;;;8.48;0.80;;;9.20;99.90;;;;;;5035915;28;20053;-90
2023/02/03 05:51:53;;;;;;;7.97;0.70;;;9.10;99.90;;;;;;5032427;28;20026;-90
2023/02/03 05:54:18;;;;;;;10.88;1.15;;;9.20;99.90;;;;;;5027489;28;20029;-89
2023/02/03 05:56:44;;;;;;;9.98;0.75;;;9.20;99.90;;;;;;5026562;28;20097;-90
2023/02/03 05:59:10;;;;;;;13.07;1.17;;;9.20;99.90;;;;;;5031664;28;20040;-89
2023/02/03 06:01:36;;;;;;;7.88;0.82;;;9.10;99.90;;;;;;5035366;28;20493;-89
2023/02/03 06:04:02;;;;;;;6.32;0.65;;;9.10;99.90;;;;;;5031649;28;20481;-88
2023/02/03 06:06:32;;;;;;;6.72;0.77;;;9.10;99.90;;;;;;5033464;28;20030;-90
2023/02/03 06:08:59;;;;;;;6.95;0.60;;;9.10;99.90;;;;;;5025180;28;20088;-89
2023/02/03 06:11:25;;;;;;;7.90;0.60;;;9.10;99.90;;;;;;5034182;28;20075;-90
2023/02/03 06:13:55;;;;;;;7.88;0.93;;;9.10;99.90;;;;;;5033493;28;20470;-89
2023/02/03 06:16:23;;;;;;;8.57;0.73;;;9.10;99.90;;;;;;5032388;28;20431;-89
2023/02/03 06:18:49;;;;;;;9.65;1.00;;;9.10;99.90;;;;;;5034176;28;20025;-89
2023/02/03 06:21:15;;;;;;;11.90;0.80;;;9.10;99.90;;;;;;5035924;28;20033;-88
2023/02/03 06:23:40;;;;;;;11.18;0.98;;;9.10;99.90;;;;;;5034788;28;20034;-90
2023/02/03 06:26:06;;;;;;;9.57;0.57;;;9.10;99.90;;;;;;5029161;28;20041;-89
2023/02/03 06:28:32;;;;;;;10.85;1.13;;;9.10;99.90;;;;;;5022779;28;20034;-90
2023/02/03 06:30:58;;;;;;;7.80;0.90;;;9.10;99.90;;;;;;5026949;28;20031;-90
2023/02/03 06:33:23;;;;;;;8.18;1.42;;;9.10;99.90;;;;;;5034891;28;20081;-90
2023/02/03 06:35:49;;;;;;;4.60;0.50;;;9.10;99.90;;;;;;5034797;28;20052;-89
2023/02/03 06:38:14;;;;;;;8.88;0.73;;;9.10;99.90;;;;;;5035070;28;20033;-89
2023/02/03 06:40:40;;;;;;;9.88;0.93;;;9.10;99.90;;;;;;5034086;28;20026;-87
2023/02/03 06:43:06;;;;;;;10.32;0.75;;;9.10;99.90;;;;;;5027951;28;20038;-89
2023/02/03 06:45:31;;;;;;;13.13;1.13;;;9.10;99.90;;;;;;5031134;28;20173;-90
2023/02/03 06:47:57;;;;;;;9.30;1.45;;;9.10;99.90;;;;;;5024426;28;20041;-89
2023/02/03 06:50:22;;;;;;;10.98;0.98;;;9.10;99.90;;;;;;5022066;28;20021;-90
2023/02/03 06:52:49;;;;;;;7.13;0.80;;;9.10;99.90;;;;;;5033737;28;20022;-91
2023/02/03 06:55:14;;;;;;;11.27;1.52;;;9.10;99.90;;;;;;5027362;28;20018;-89
2023/02/03 06:57:45;;;;;;;12.30;0.93;;;9.10;99.90;;;;;;5029251;28;20120;-88
2023/02/03 07:00:12;;;;;;;13.23;0.82;;;9.10;99.90;;;;;;5028691;28;20033;-89
2023/02/03 07:02:38;;;;;;;8.13;0.90;;;9.00;99.90;;;;;;5030891;28;20124;-89
2023/02/03 07:05:05;;;;;;;10.10;1.20;;;9.00;99.90;;;;;;5030720;28;20050;-89
2023/02/03 07:07:31;;;;;;;11.73;1.23;;;9.00;99.90;;;;;;5030696;28;20037;-89
2023/02/03 07:09:57;;;;;;;14.73;1.27;;;9.00;99.90;;;;;;5025252;28;20036;-89
2023/02/03 07:12:23;;;;;;;16.67;1.02;;;9.00;99.90;;;;;;5033861;28;20017;-89
2023/02/03 07:14:48;;;;;;;10.13;0.98;;;9.00;99.90;;;;;;5030370;28;20669;-90
2023/02/03 07:17:14;;;;;;;9.55;0.73;;;9.00;99.90;;;;;;5031373;28;20527;-89
2023/02/03 07:19:39;;;;;;;11.48;1.30;;;9.00;99.90;;;;;;5033363;28;20048;-89
2023/02/03 07:22:05;;;;;;;19.60;1.52;;;9.00;99.90;;;;;;5033844;28;20040;-90
2023/02/03 07:24:30;;;;;;;14.50;1.63;;;9.00;99.90;;;;;;5030041;28;20062;-89
2023/02/03 07:26:56;;;;;;;14.40;1.48;;;9.00;99.90;;;;;;5033329;28;20040;-89
2023/02/03 07:29:21;;;;;;;8.43;0.90;;;9.00;99.90;;;;;;5033613;28;20022;-89
2023/02/03 07:31:47;;;;;;;11.23;1.08;;;9.00;99.90;;;;;;5032103;28;20033;-89
2023/02/03 07:34:12;;;;;;;8.85;1.20;;;9.00;99.90;;;;;;5027157;28;20485;-89
2023/02/03 07:36:38;;;;;;;10.93;1.13;;;9.00;99.90;;;;;;5033895;28;20022;-90
2023/02/03 07:39:03;;;;;;;11.82;1.08;;;9.00;99.90;;;;;;5033456;28;20029;-90
2023/02/03 07:41:29;;;;;;;10.48;0.95;;;9.00;99.90;;;;;;5033329;28;20381;-90
2023/02/03 07:43:55;;;;;;;7.90;0.70;;;9.00;99.90;;;;;;5032362;28;20085;-90
2023/02/03 07:46:23;;;;;;;7.97;1.42;;;9.00;99.90;;;;;;5043914;28;20024;-90
2023/02/03 07:48:49;;;;;;;9.70;0.73;;;9.00;99.90;;;;;;5034073;28;20485;-90
2023/02/03 07:51:15;;;;;;;7.65;1.25;;;9.00;99.90;;;;;;5029597;28;20021;-88
2023/02/03 07:53:41;;;;;;;11.55;1.33;;;9.00;99.90;;;;;;5021133;28;20022;-90
2023/02/03 07:56:06;;;;;;;11.98;1.40;;;9.00;99.90;;;;;;5030610;28;20056;-89
2023/02/03 07:58:32;;;;;;;8.82;1.17;;;9.00;99.90;;;;;;5033570;28;20068;-90
2023/02/03 08:00:58;;;;;;;12.23;1.27;;;9.00;99.90;;;;;;5031487;28;20037;-89
2023/02/03 08:03:24;;;;;;;10.85;1.00;;;9.00;99.90;;;;;;5030906;28;20481;-90
2023/02/03 08:05:51;;;;;;;8.48;0.85;;;9.00;99.90;;;;;;5027338;28;20029;-89
2023/02/03 08:08:16;;;;;;;8.38;1.00;;;9.00;99.90;;;;;;5027442;28;20041;-89
2023/02/03 08:10:42;;;;;;;12.05;1.13;;;9.00;99.90;;;;;;5031929;28;20026;-89
2023/02/03 08:13:08;;;;;;;10.98;1.20;;;9.10;99.90;;;;;;5030967;28;20033;-89
2023/02/03 08:15:34;;;;;;;8.10;0.95;;;9.10;99.90;;;;;;5032720;28;20108;-89
2023/02/03 08:17:59;;;;;;;15.13;1.88;;;9.10;99.90;;;;;;5026594;28;20032;-89
2023/02/03 08:20:25;;;;;;;12.55;0.88;;;9.10;99.90;;;;;;5019226;28;20028;-89
2023/02/03 08:22:51;;;;;;;12.55;1.30;;;9.10;99.90;;;;;;5028195;28;20042;-89
2023/02/03 08:25:17;;;;;;;10.80;1.10;;;9.10;99.90;;;;;;5020578;28;20048;-87
2023/02/03 08:27:43;;;;;;;15.23;1.90;;;9.10;99.90;;;;;;5040358;28;20029;-89
2023/02/03 08:30:12;;;;;;;11.45;1.10;;;9.10;99.90;;;;;;5039828;28;20474;-89
2023/02/03 08:32:38;;;;;;;8.25;1.17;;;9.10;99.90;;;;;;5038318;28;20044;-89
2023/02/03 08:35:04;;;;;;;13.02;1.08;;;9.20;99.90;;;;;;5039393;28;20045;-89
2023/02/03 08:37:31;;;;;;;12.88;1.02;;;9.20;99.90;;;;;;5039027;28;20053;-89
2023/02/03 08:39:57;;;;;;;12.10;1.30;;;9.30;99.90;;;;;;5036235;28;20072;-90
2023/02/03 08:42:22;;;;;;;11.35;1.13;;;9.20;99.90;;;;;;5028756;28;20042;-90
2023/02/03 08:44:48;;;;;;;5.90;0.73;;;9.20;99.90;;;;;;5030919;28;20080;-90
2023/02/03 08:47:14;;;;;;;13.52;1.10;;;9.30;99.90;;;;;;5038523;28;20107;-90
2023/02/03 08:49:40;;;;;;;12.90;1.30;;;9.30;99.90;;;;;;5045283;28;20033;-89
2023/02/03 08:52:09;;;;;;;7.70;0.90;;;9.30;99.90;;;;;;5039576;28;20068;-89
2023/02/03 08:54:34;;;;;;;11.43;1.23;;;9.30;99.90;;;;;;5040640;28;20117;-89
2023/02/03 08:57:00;;;;;;;9.75;1.38;;;9.30;99.90;;;;;;5034631;28;20060;-90
2023/02/03 08:59:26;;;;;;;9.07;0.90;;;9.30;99.90;;;;;;5035910;28;20025;-89
2023/02/03 09:01:52;;;;;;;6.15;1.08;;;9.30;99.90;;;;;;5032627;28;20048;-90
2023/02/03 09:04:23;;;;;;;13.50;1.20;;;9.30;99.90;;;;;;5032469;28;20120;-89
2023/02/03 09:06:49;;;;;;;8.18;1.23;;;9.30;99.90;;;;;;5032525;28;20025;-90
2023/02/03 09:09:15;;;;;;;12.32;1.73;;;9.30;99.90;;;;;;5030213;28;20319;-90
2023/02/03 09:11:42;;;;;;;10.15;0.88;;;9.30;99.90;;;;;;5032097;28;20095;-89
2023/02/03 09:14:08;;;;;;;10.60;1.13;;;9.30;99.90;;;;;;5032475;28;20037;-89
2023/02/03 09:16:33;;;;;;;13.65;1.25;;;9.30;99.90;;;;;;5032187;28;20025;-90
2023/02/03 09:18:59;;;;;;;10.75;1.45;;;9.30;99.90;;;;;;5032191;28;20026;-90
2023/02/03 09:21:25;;;;;;;14.35;1.70;;;9.40;99.90;;;;;;5032339;28;20044;-89
2023/02/03 09:23:50;;;;;;;9.70;0.88;;;9.40;99.90;;;;;;5028363;28;20141;-90
2023/02/03 09:26:16;;;;;;;11.90;1.02;;;9.40;99.90;;;;;;5026563;28;20021;-89
2023/02/03 09:28:42;;;;;;;11.18;1.00;;;9.40;99.90;;;;;;5033842;28;20060;-89
2023/02/03 09:31:10;;;;;;;8.85;1.33;;;9.40;99.90;;;;;;5033564;28;20026;-88
2023/02/03 09:33:36;;;;;;;7.60;0.88;;;9.50;99.90;;;;;;5034160;28;20032;-89
2023/02/03 09:36:02;;;;;;;11.75;1.40;;;9.50;99.90;;;;;;5035335;28;20513;-88
2023/02/03 09:38:28;;;;;;;16.00;3.60;;;9.50;99.90;;;;;;5033584;28;20119;-88
2023/02/03 09:41:06;;;;;;;16.42;2.03;;;9.50;99.90;;;;;;5034221;28;20045;-88
2023/02/03 09:43:58;;;;;;;15.23;1.35;;;9.50;99.90;;;;;;5035499;28;20035;-88
2023/02/03 09:46:33;;;;;;;13.63;1.30;;;9.50;99.90;;;;;;5034753;28;20033;-88
2023/02/03 09:49:05;;;;;;;15.45;1.65;;;9.50;99.90;;;;;;5034549;28;20036;-88
2023/02/03 09:51:33;;;;;;;;;;;9.50;99.90;;;;;;5034514;28;20021;-89
2023/02/03 09:54:18;;;;;;;10.60;1.25;;;9.50;99.90;;;;;;5036311;28;19944;-88
2023/02/03 09:56:49;;;;;;;11.60;1.00;;;9.50;99.90;;;;;;5034804;28;20025;-88
2023/02/03 09:59:15;;;;;;;11.03;0.90;;;9.50;99.90;;;;;;5034687;28;20120;-88
2023/02/03 10:02:18;;;;;;;9.50;1.10;;;9.60;99.90;;;;;;5034830;28;20064;-88
2023/02/03 10:04:55;;;;;;;12.82;1.17;;;9.60;99.90;;;;;;5035067;28;20030;-88
2023/02/03 10:07:50;;;;;;;11.95;1.20;;;9.60;99.90;;;;;;5034797;28;20036;-88
2023/02/03 10:10:45;;;;;;;11.10;1.48;;;9.60;99.90;;;;;;5034256;28;20033;-88
2023/02/03 10:13:38;;;;;;;25.05;1.58;;;9.60;99.90;;;;;;5030779;28;20026;-88
2023/02/03 10:16:13;;;;;;;13.57;1.20;;;9.60;99.90;;;;;;5035893;28;20029;-88
2023/02/03 10:18:54;;;;;;;11.02;0.93;;;9.60;99.90;;;;;;5035348;28;20036;-88
2023/02/03 10:21:25;;;;;;;10.25;1.10;;;9.60;99.90;;;;;;5021804;28;20409;-88
2023/02/03 10:23:53;;;;;;;10.88;0.80;;;9.60;99.90;;;;;;5014946;28;20041;-88
2023/02/03 10:26:24;;;;;;;18.05;1.10;;;9.60;99.90;;;;;;5014853;28;20033;-87
2023/02/03 10:28:54;;;;;;;17.02;1.77;;;9.60;99.90;;;;;;5027487;28;20032;-88
2023/02/03 10:31:22;;;;;;;16.17;1.10;;;9.60;99.90;;;;;;5026397;28;20049;-88
2023/02/03 10:33:59;;;;;;;11.52;0.98;;;9.60;99.90;;;;;;5014494;28;20026;-88
2023/02/03 10:36:45;;;;;;;13.65;2.13;;;9.60;99.90;;;;;;5021341;28;20076;-88
2023/02/03 10:39:16;;;;;;;16.40;1.85;;;9.70;99.90;;;;;;5014727;28;20038;-89
2023/02/03 10:41:41;;;;;;;10.55;1.70;;;9.60;99.90;;;;;;5018085;28;20025;-87
2023/02/03 10:44:11;;;;;;;14.20;1.40;;;9.70;99.90;;;;;;5035255;28;20091;-88
2023/02/03 10:46:39;;;;;;;11.52;0.95;;;9.70;99.90;;;;;;5027231;28;20269;-88
2023/02/03 10:49:05;;;;;;;10.95;1.17;;;9.70;99.90;;;;;;5032302;28;20029;-87
2023/02/03 10:51:43;;;;;;;10.38;1.00;;;9.70;99.90;;;;;;5033868;28;20056;-86
2023/02/03 10:54:29;;;;;;;7.00;0.80;;;9.80;99.90;;;;;;5023717;28;20029;-88
2023/02/03 10:57:00;;;;;;;15.27;0.93;;;9.80;99.90;;;;;;5019876;28;20033;-88
2023/02/03 10:59:33;;;;;;;7.33;0.80;;;9.80;99.90;;;;;;5034073;28;20044;-88
2023/02/03 11:01:58;;;;;;;;;;;9.80;99.90;;;;;;5032411;28;20124;-89
2023/02/03 11:04:30;;;;;;;12.80;1.55;;;9.80;99.90;;;;;;5026952;28;20335;-88
2023/02/03 11:07:05;;;;;;;11.30;1.70;;;9.80;99.90;;;;;;5033570;28;20025;-88
2023/02/03 11:09:44;;;;;;;10.30;0.90;;;9.80;99.90;;;;;;5034154;28;20072;-88
2023/02/03 11:12:15;;;;;;;10.57;0.85;;;9.90;99.90;;;;;;5027836;28;20056;-88
2023/02/03 11:14:44;;;;;;;7.70;1.02;;;9.90;99.90;;;;;;5035076;28;20424;-88
2023/02/03 11:17:25;;;;;;;8.05;1.25;;;10.00;99.90;;;;;;5035826;28;20398;-88
2023/02/03 11:19:53;;;;;;;8.75;0.80;;;10.00;99.90;;;;;;5030297;28;20026;-88
2023/02/03 11:22:29;;;;;;;5.82;0.80;;;10.10;99.90;;;;;;5030347;28;20053;-88
2023/02/03 11:24:55;;;;;;;7.25;1.35;;;10.20;99.90;;;;;;5030122;28;20120;-89
2023/02/03 11:27:22;;;;;;;5.85;0.95;;;10.30;99.90;;;;;;5032854;28;20033;-88
2023/02/03 11:30:05;;;;;;;10.10;1.05;;;10.40;99.90;;;;;;5033494;28;20112;-88
2023/02/03 11:32:41;;;;;;;7.95;0.75;;;10.50;99.90;;;;;;5026936;28;20034;-91
2023/02/03 11:35:20;;;;;;;7.40;1.20;;;10.60;99.90;;;;;;5033677;28;20136;-85
2023/02/03 11:37:49;;;;;;;10.15;0.95;;;10.60;99.90;;;;;;5031320;28;20060;-88
2023/02/03 11:40:14;;;;;;;6.75;0.90;;;10.70;99.90;;;;;;5033393;28;20048;-90
2023/02/03 11:42:57;;;;;;;5.60;0.70;;;10.70;99.90;;;;;;5036165;28;20044;-89
2023/02/03 11:45:40;;;;;;;7.57;0.70;;;10.70;99.90;;;;;;5032276;28;20104;-89
2023/02/03 11:48:09;;;;;;;8.82;1.10;;;10.70;99.90;;;;;;5032633;28;20037;-89
2023/02/03 11:50:56;;;;;;;5.88;1.00;;;10.70;99.90;;;;;;5031638;28;20509;-90
2023/02/03 11:53:25;;;;;;;6.35;0.70;;;10.70;99.90;;;;;;5033686;28;20021;-89
2023/02/03 11:56:10;;;;;;;4.38;0.80;;;10.80;99.90;;;;;;5034592;28;20153;-89
2023/02/03 11:58:51;;;;;;;6.63;0.90;;;10.80;99.90;;;;;;5033933;28;20026;-89
2023/02/03 12:01:35;;;;;;;5.38;1.02;;;10.80;99.90;;;;;;5034793;28;20338;-89
2023/02/03 12:04:27;;;;;;;4.80;2.17;;;10.80;99.90;;;;;;5034329;28;20044;-89
2023/02/03 12:06:58;;;;;;;4.23;0.90;;;10.80;99.90;;;;;;5033866;28;20029;-88
2023/02/03 12:09:36;;;;;;;6.03;0.67;;;10.90;99.90;;;;;;5033621;28;20026;-89
2023/02/03 12:12:19;;;;;;;6.65;1.25;;;10.90;99.90;;;;;;5035569;28;20422;-89
2023/02/03 12:14:58;;;;;;;5.45;0.80;;;10.90;99.90;;;;;;5036857;28;20033;-89
2023/02/03 12:17:39;;;;;;;5.20;0.70;;;10.90;99.90;;;;;;5035467;28;20028;-87
2023/02/03 12:20:24;;;;;;;4.95;0.82;;;11.00;99.90;;;;;;5036156;28;20052;-89
2023/02/03 12:23:10;;;;;;;8.05;0.90;;;11.00;99.90;;;;;;5036581;28;20037;-88
2023/02/03 12:25:51;;;;;;;5.50;1.05;;;11.00;99.90;;;;;;5037395;28;20025;-91
2023/02/03 12:29:03;;;;;;;4.68;1.17;;;11.10;99.90;;;;;;5019707;28;20042;-94
2023/02/03 12:31:50;;;;;;;6.78;0.80;;;11.10;99.90;;;;;;5026163;28;20026;-91
2023/02/03 12:34:30;;;;;;;9.45;1.20;;;11.10;99.90;;;;;;5024515;28;20069;-93
2023/02/03 12:37:05;;;;;;;5.80;1.42;;;11.10;99.90;;;;;;5035136;28;20091;-93
2023/02/03 12:39:37;;;;;;;5.82;0.85;;;11.20;99.90;;;;;;5035744;28;20048;-88
2023/02/03 12:42:26;;;;;;;8.90;1.00;;;11.20;99.90;;;;;;5038211;28;20025;-88
2023/02/03 12:45:01;;;;;;;4.80;1.00;;;11.10;99.90;;;;;;5048356;28;20108;-89
2023/02/03 12:47:55;;;;;;;4.35;0.90;;;11.20;99.90;;;;;;5032213;28;20060;-91
2023/02/03 12:50:26;;;;;;;6.28;1.00;;;11.20;99.90;;;;;;5033790;28;20025;-93
2023/02/03 12:53:21;;;;;;;9.00;1.02;;;11.10;99.90;;;;;;5030294;28;20044;-93
2023/02/03 12:56:03;;;;;;;3.97;0.70;;;11.10;99.90;;;;;;5031078;28;20035;-93
2023/02/03 12:58:49;;;;;;;4.65;0.68;;;11.10;99.90;;;;;;5035006;28;20032;-93
2023/02/03 13:01:30;;;;;;;5.95;0.80;;;11.10;99.90;;;;;;5038163;28;20029;-94
2023/02/03 13:04:56;;;;;;;9.23;1.65;;;11.10;99.90;;;;;;5055850;28;20037;-93
2023/02/03 13:07:35;;;;;;;7.15;1.08;;;11.10;99.90;;;;;;4978181;28;20045;-94
2023/02/03 13:10:02;;;;;;;7.93;0.93;;;11.10;99.90;;;;;;4962625;28;20047;-94